Latest Weather Observations for Dunalley

IDT60801

Issued at 6:35 pm EST Tuesday 29 July 2014 (issued every 30 minutes, with the page automatically refreshed every 10 minutes)

About weather observations | Map of weather stations | Latest weather observations for TAS | Other Formats
Station Details ID: 094254 Name: DUNALLEY (STROUD POINT) Lat: -42.90 Lon: 147.79 Height: 12.43 m
Data from the previous 72 hours. | See also: Recent months at Dunalley
Date/Time
EST
Temp
°C
App
Temp
°C
Dew
Point
Rel
Hum
%
Delta-T
°C
Wind Press
QNH
hPa
Press
MSL
hPa
Rain
since 9 am
mm
Dir
 
Spd
km/h
Gust
km/h
Spd
kts
Gust
kts
29/06:30pm 10.4 4.5 7.3 81 1.5 WNW 28 46 15 25 986.2 - 3.4
29/06:22pm 8.9 3.1 7.8 93 0.5 W 28 48 15 26 985.9 - 3.4
29/06:19pm 9.0 2.2 7.8 92 0.6 W 33 48 18 26 986.2 - 3.4
29/06:15pm 8.6 -2.6 7.7 94 0.4 WSW 56 76 30 41 985.6 - 3.2
29/06:10pm 9.0 -4.2 6.4 84 1.2 WSW 65 76 35 41 986.3 - 2.6
29/06:08pm 10.9 3.6 8.8 87 1.1 SW 37 70 20 38 986.1 - 2.4
29/06:00pm 10.5 9.4 8.6 88 0.9 W 4 11 2 6 985.1 985.1 2.4
29/05:30pm 10.5 6.4 8.8 89 0.8 W 20 30 11 16 985.2 - 2.4
29/05:25pm 11.5 5.9 8.7 83 1.4 WNW 28 46 15 25 985.5 - 2.0
29/05:00pm 11.7 7.1 8.0 78 1.8 N 22 41 12 22 985.1 985.1 1.0
29/04:30pm 11.9 5.2 8.0 77 1.9 NW 33 59 18 32 984.9 - 0.8
29/04:10pm 13.7 7.4 5.6 58 3.8 NNW 28 52 15 28 985.5 - 0.2
29/04:00pm 13.4 8.6 5.8 60 3.6 NW 20 37 11 20 985.6 985.6 0.2
29/03:30pm 13.8 7.5 5.7 58 3.8 NW 28 48 15 26 986.3 - 0.2
29/03:14pm 13.7 6.9 5.3 57 3.9 NW 30 54 16 29 986.3 - 0.2
29/03:00pm 14.0 8.4 5.6 57 4.0 WNW 24 37 13 20 987.1 987.1 0.2
29/02:38pm 13.6 7.2 5.0 56 4.0 NW 28 48 15 26 987.6 - 0.2
29/02:30pm 13.4 6.2 5.1 57 3.9 NW 32 46 17 25 987.4 - 0.2
29/02:02pm 13.2 5.0 4.6 56 3.9 NW 37 57 20 31 987.3 - 0.2
29/02:00pm 13.2 4.6 4.6 56 4.0 NW 39 57 21 31 987.4 987.4 0.2
29/01:30pm 12.7 6.2 4.9 59 3.6 NW 28 56 15 30 988.2 - 0.2
29/01:04pm 11.1 1.9 6.3 72 2.2 NW 44 65 24 35 989.2 - 0.2
29/01:00pm 11.0 0.5 5.5 69 2.6 NW 50 65 27 35 989.1 989.1 0.2
29/12:53pm 11.0 4.6 6.9 76 1.9 NW 30 50 16 27 989.6 - 0.2
29/12:30pm 11.0 2.5 6.9 76 1.9 W 41 67 22 36 990.4 - 0.0
29/12:01pm 11.8 4.0 6.5 70 2.5 WNW 37 56 20 30 989.8 - 0.0
29/12:00pm 11.8 3.6 6.5 70 2.5 WNW 39 56 21 30 989.8 989.8 0.0
29/11:30am 11.9 2.7 6.2 68 2.7 WNW 44 67 24 36 990.2 - 0.0
29/11:01am 13.6 5.3 6.2 61 3.5 NW 39 59 21 32 989.9 - 0.0
29/11:00am 13.6 5.4 6.5 62 3.4 NW 39 56 21 30 989.9 989.9 0.0
29/10:35am 13.7 5.2 6.8 63 3.4 WNW 41 61 22 33 989.7 - 0.0
29/10:30am 13.7 5.6 7.0 64 3.3 WNW 39 56 21 30 989.6 - 0.0
29/10:06am 14.5 8.1 7.1 61 3.6 WNW 30 48 16 26 989.9 - 0.0
29/10:00am 14.7 7.7 7.0 60 3.8 NW 33 48 18 26 989.8 989.8 0.0
29/09:51am 14.4 8.0 7.0 61 3.6 WNW 30 48 16 26 989.9 - 0.0
29/09:30am 14.2 9.5 7.9 66 3.1 NW 22 41 12 22 990.0 - 0.0
29/09:00am 12.0 8.5 8.8 81 1.6 NNW 17 30 9 16 990.4 990.4 2.4
29/08:30am 12.0 7.9 8.8 81 1.6 N 20 32 11 17 990.7 - 1.4
29/08:00am 11.3 8.4 8.2 81 1.5 W 13 20 7 11 991.1 991.1 0.0
29/07:30am 13.1 7.9 7.1 67 2.9 WNW 24 46 13 25 991.6 - 0.0
29/07:09am 13.7 7.6 6.8 63 3.4 NW 28 50 15 27 992.0 - 0.0
29/07:00am 13.9 8.9 6.3 60 3.7 NNW 22 44 12 24 991.7 991.7 0.0
29/06:30am 13.3 10.3 5.9 61 3.5 NNW 11 26 6 14 991.5 - 0.0
29/06:00am 12.6 7.9 6.2 65 3.1 NNW 20 30 11 16 992.2 992.2 0.0
29/05:30am 12.7 8.0 6.1 64 3.1 N 20 33 11 18 993.1 - 0.0
29/05:00am 12.4 7.7 5.3 62 3.3 NNW 19 32 10 17 993.8 993.8 0.0
29/04:30am 11.8 8.7 5.7 66 2.8 N 11 19 6 10 994.1 - 0.0
29/04:00am 10.7 7.3 5.7 71 2.3 N 13 20 7 11 995.1 995.1 0.0
29/03:30am 11.5 7.2 5.2 65 2.9 N 17 26 9 14 995.6 - 0.0
29/03:00am 10.4 7.2 5.2 70 2.4 N 11 17 6 9 996.2 996.2 0.0
29/02:30am 11.4 7.8 5.1 65 2.9 N 13 22 7 12 996.8 - 0.0
29/02:00am 11.5 7.8 4.7 63 3.1 N 13 22 7 12 997.4 997.4 0.0
29/01:30am 11.1 8.1 4.1 62 3.1 N 9 17 5 9 997.5 - 0.0
29/01:00am 12.1 8.0 4.3 59 3.6 NNW 15 24 8 13 998.2 998.2 0.0
29/12:30am 12.4 7.5 4.1 57 3.7 NW 19 35 10 19 998.8 - 0.0
29/12:00am 12.5 7.5 4.5 58 3.7 NW 20 44 11 24 999.0 999.0 0.0
 
Date/Time
EST
Temp
°C
App
Temp
°C
Dew
Point
Rel
Hum
%
Delta-T
°C
Wind Press
QNH
hPa
Press
MSL
hPa
Rain
since 9 am
mm
Dir
 
Spd
km/h
Gust
km/h
Spd
kts
Gust
kts
28/11:30pm 12.1 8.0 4.3 59 3.5 NNW 15 26 8 14 999.4 - 0.0
28/11:00pm 12.5 8.0 4.2 57 3.8 NW 17 30 9 16 999.6 999.6 0.0
28/10:30pm 12.4 7.9 4.1 57 3.7 NW 17 32 9 17 1000.3 - 0.0
28/10:00pm 12.7 7.7 4.4 57 3.8 NW 20 35 11 19 1000.4 1000.4 0.0
28/09:30pm 12.5 8.1 4.5 58 3.6 NW 17 26 9 14 1000.4 - 0.0
28/09:00pm 12.4 7.8 3.9 56 3.8 NNW 17 24 9 13 1000.7 1000.7 0.0
28/08:30pm 11.6 8.8 2.9 55 3.8 NW 7 13 4 7 1001.5 - 0.0
28/08:00pm 12.8 9.3 3.5 53 4.2 NW 11 24 6 13 1001.5 1001.5 0.0
28/07:30pm 13.4 8.4 3.5 51 4.4 WNW 19 28 10 15 1001.9 - 0.0
28/07:00pm 14.1 8.9 2.4 45 5.2 NW 19 32 10 17 1001.9 1001.9 0.0
28/06:30pm 14.2 9.4 2.8 46 5.1 NW 17 28 9 15 1001.5 - 0.0
28/06:00pm 12.2 9.4 3.4 55 3.9 NW 7 15 4 8 1001.2 1001.2 0.0
28/05:30pm 13.7 10.7 2.3 46 5.0 NW 7 13 4 7 1001.3 - 0.0
28/05:00pm 13.4 10.0 2.0 46 5.0 WNW 9 17 5 9 1001.5 1001.5 0.0
28/04:30pm 14.8 9.5 2.0 42 5.6 WNW 19 30 10 16 1001.6 - 0.0
28/04:00pm 15.7 10.7 1.4 38 6.3 WNW 17 30 9 16 1001.6 1001.6 0.0
28/03:30pm 16.2 10.8 1.5 37 6.5 WNW 19 30 10 16 1001.8 - 0.0
28/03:00pm 16.3 11.1 2.7 40 6.2 WNW 19 28 10 15 1002.2 1002.2 0.0
28/02:30pm 16.4 12.2 3.8 43 5.8 WNW 15 26 8 14 1002.1 - 0.0
28/02:00pm 16.1 10.8 3.2 42 5.9 WNW 20 30 11 16 1002.6 1002.6 0.0
28/01:30pm 15.9 8.7 3.0 42 5.9 WNW 30 50 16 27 1002.9 - 0.0
28/01:00pm 15.8 8.2 2.9 42 5.9 WNW 32 46 17 25 1003.5 1003.5 0.0
28/12:36pm 15.9 8.1 2.7 41 6.0 WNW 33 54 18 29 1003.7 - 0.0
28/12:30pm 15.7 8.5 3.2 43 5.7 WNW 30 48 16 26 1003.8 - 0.0
28/12:15pm 15.8 8.5 5.4 50 5.0 WNW 33 54 18 29 1003.9 - 0.0
28/12:00pm 15.8 8.0 5.1 49 5.1 WNW 35 50 19 27 1004.0 1004.0 0.0
28/11:40am 16.1 9.7 5.4 49 5.1 WNW 28 46 15 25 1004.4 - 0.0
28/11:30am 16.1 10.6 5.7 50 5.0 WNW 24 35 13 19 1004.6 - 0.0
28/11:00am 15.3 10.6 5.2 51 4.8 W 19 28 10 15 1005.3 1005.3 0.0
28/10:30am 15.3 8.9 5.2 51 4.8 WNW 28 41 15 22 1005.4 - 0.0
28/10:00am 15.5 12.2 6.2 54 4.5 NW 13 22 7 12 1005.5 1005.5 0.0
28/09:30am 14.7 10.1 6.3 57 4.0 WNW 20 28 11 15 1005.6 - 0.0
28/09:00am 14.4 12.2 6.3 58 3.9 N 7 19 4 10 1005.9 1005.9 0.0
28/08:30am 13.9 12.4 7.0 63 3.4 NNW 4 9 2 5 1005.8 - 0.0
28/08:00am 13.6 9.9 6.5 62 3.4 NW 15 24 8 13 1005.5 1005.5 0.0
28/07:30am 13.1 8.7 6.7 65 3.1 NNW 19 30 10 16 1005.7 - 0.0
28/07:00am 11.6 9.6 7.1 74 2.2 N 7 15 4 8 1006.2 1006.2 0.0
28/06:30am 12.7 10.1 7.8 72 2.4 N 11 17 6 9 1006.2 - 0.0
28/06:00am 12.1 9.2 8.2 77 1.9 NNE 13 19 7 10 1005.9 1005.9 0.0
28/05:30am 11.8 8.6 8.3 79 1.7 N 15 19 8 10 1005.9 - 0.0
28/05:00am 11.3 7.9 7.6 78 1.8 NNE 15 20 8 11 1006.1 1006.1 0.0
28/04:30am 11.7 8.9 7.0 73 2.2 N 11 20 6 11 1006.5 - 0.0
28/04:00am 10.3 7.0 6.5 77 1.8 NNE 13 17 7 9 1006.5 1006.5 0.0
28/03:30am 10.3 7.1 7.0 80 1.6 NNE 13 17 7 9 1006.8 - 0.0
28/03:00am 10.3 6.7 6.8 79 1.7 NE 15 22 8 12 1007.2 1007.2 0.0
28/02:30am 11.9 9.7 6.0 67 2.8 N 7 15 4 8 1007.9 - 0.0
28/02:00am 11.9 9.0 6.4 69 2.6 N 11 15 6 8 1008.2 1008.2 0.0
28/01:30am 10.6 8.7 6.7 77 1.8 NE 6 9 3 5 1008.4 - 0.0
28/01:00am 10.6 8.2 7.1 79 1.7 NE 9 13 5 7 1008.8 1008.8 0.0
28/12:30am 11.0 9.1 6.7 75 2.0 NE 6 9 3 5 1009.2 - 0.0
28/12:00am 10.1 6.3 7.7 85 1.2 NE 17 20 9 11 1009.6 1009.6 0.0
 
Date/Time
EST
Temp
°C
App
Temp
°C
Dew
Point
Rel
Hum
%
Delta-T
°C
Wind Press
QNH
hPa
Press
MSL
hPa
Rain
since 9 am
mm
Dir
 
Spd
km/h
Gust
km/h
Spd
kts
Gust
kts
27/11:30pm 10.9 8.2 7.4 79 1.7 NNE 11 15 6 8 1010.1 - 0.0
27/11:00pm 12.1 10.0 6.8 70 2.5 N 7 13 4 7 1010.3 1010.4 0.0
27/10:30pm 11.7 9.2 6.6 71 2.4 N 9 15 5 8 1010.8 - 0.0
27/10:00pm 11.9 9.5 7.2 73 2.3 N 9 19 5 10 1011.3 1011.4 0.0
27/09:30pm 12.0 10.1 6.7 70 2.5 N 6 11 3 6 1011.5 - 0.0
27/09:00pm 11.9 9.4 6.4 69 2.6 N 9 15 5 8 1011.7 1011.8 0.0
27/08:30pm 12.4 8.6 6.0 65 3.0 N 15 22 8 12 1011.6 - 0.0
27/08:00pm 11.2 8.6 6.3 72 2.3 N 9 15 5 8 1011.8 1011.9 0.0
27/07:30pm 11.1 8.2 6.6 74 2.1 N 11 15 6 8 1012.2 - 0.0
27/07:00pm 11.0 8.1 6.7 75 2.0 N 11 15 6 8 1012.5 1012.6 0.0
27/06:30pm 10.7 7.5 7.0 78 1.8 NNE 13 19 7 10 1012.5 - 0.0
27/06:00pm 10.6 6.9 6.4 75 2.0 N 15 19 8 10 1012.8 1012.9 0.0
27/05:30pm 10.5 7.2 6.5 76 1.9 N 13 15 7 8 1012.8 - 0.0
27/05:00pm 11.5 8.5 6.2 70 2.5 NNE 11 19 6 10 1013.0 1013.1 0.0
27/04:30pm 11.8 9.8 6.9 72 2.3 NNE 7 11 4 6 1012.8 - 0.0
27/04:00pm 13.1 11.0 6.5 64 3.2 NE 7 11 4 6 1013.2 1013.3 0.0
27/03:30pm 13.5 11.2 7.3 66 3.0 NE 9 15 5 8 1013.3 - 0.0
27/03:00pm 14.4 12.2 6.0 57 4.0 NE 7 11 4 6 1013.3 1013.4 0.0
27/02:30pm 13.3 12.6 7.1 66 3.0 CALM 0 4 0 2 1013.9 - 0.0
27/02:00pm 12.3 10.9 7.2 71 2.5 ENE 4 7 2 4 1014.3 1014.4 0.0
27/01:30pm 10.5 8.8 7.7 83 1.3 ENE 6 7 3 4 1014.7 - 0.0
27/01:00pm 10.6 9.0 8.0 84 1.3 ENE 6 9 3 5 1015.4 1015.5 0.0
27/12:30pm 11.1 9.7 8.7 85 1.2 ENE 6 9 3 5 1016.2 - 0.0
27/12:00pm 11.9 9.2 8.9 82 1.5 ENE 13 17 7 9 1016.6 1016.7 0.0
27/11:30am 10.8 8.0 8.7 87 1.0 NE 13 20 7 11 1017.2 - 0.0
27/11:00am 9.6 8.4 9.5 99 0.0 NE 6 7 3 4 1017.7 1017.8 0.0
27/10:30am 8.3 7.9 8.2 99 0.0 CALM 0 4 0 2 1018.6 - 0.0
27/10:00am 7.4 5.6 7.3 99 0.0 NE 6 9 3 5 1019.1 1019.2 0.0
27/09:30am 7.1 5.6 7.0 99 0.0 NE 4 6 2 3 1019.4 - 0.0
27/09:00am 7.0 5.1 6.9 99 0.0 NE 6 7 3 4 1019.8 1019.9 0.2
27/08:30am 6.9 6.2 6.8 99 0.0 CALM 0 0 0 0 1019.6 - 0.2
27/08:00am 6.8 6.0 6.7 99 0.0 CALM 0 0 0 0 1019.5 1019.6 0.2
27/07:30am 7.0 6.3 6.9 99 0.0 CALM 0 0 0 0 1019.4 - 0.2
27/07:00am 7.0 6.3 6.9 99 0.0 CALM 0 0 0 0 1019.5 1019.6 0.2
27/06:30am 7.1 6.4 7.0 99 0.0 CALM 0 0 0 0 1019.4 - 0.2
27/06:00am 7.1 6.4 7.0 99 0.0 CALM 0 2 0 1 1019.1 1019.2 0.2
27/05:30am 7.0 5.9 6.9 99 0.0 NE 2 4 1 2 1019.3 - 0.2
27/05:00am 7.3 5.5 7.2 99 0.0 NE 6 7 3 4 1019.8 1019.9 0.0
27/04:30am 7.7 6.0 7.6 99 0.0 NE 6 7 3 4 1019.9 - 0.0
27/04:00am 7.3 5.9 7.2 99 0.0 NE 4 6 2 3 1020.0 1020.1 0.0
27/03:30am 7.3 6.3 7.2 99 0.0 NE 2 6 1 3 1020.2 - 0.0
27/03:00am 7.1 5.6 7.0 99 0.0 NE 4 7 2 4 1020.3 1020.4 0.0
27/02:30am 6.9 4.8 6.8 99 0.0 NE 7 9 4 5 1020.5 - 0.0
27/02:00am 7.8 6.5 7.7 99 0.0 NE 4 6 2 3 1020.6 1020.7 0.0
27/01:30am 7.8 5.9 7.7 99 0.0 NE 7 9 4 5 1020.7 - 0.0
27/01:00am 7.9 7.4 7.8 99 0.0 CALM 0 0 0 0 1020.8 1020.9 0.0
27/12:30am 8.0 7.1 7.9 99 0.0 NE 2 4 1 2 1021.2 - 0.0
27/12:00am 7.8 6.5 7.7 99 0.0 NE 4 6 2 3 1021.5 1021.6 0.0
 
Date/Time
EST
Temp
°C
App
Temp
°C
Dew
Point
Rel
Hum
%
Delta-T
°C
Wind Press
QNH
hPa
Press
MSL
hPa
Rain
since 9 am
mm
Dir
 
Spd
km/h
Gust
km/h
Spd
kts
Gust
kts
26/11:30pm 8.0 6.8 7.9 99 0.0 NE 4 6 2 3 1021.3 - 0.0
26/11:00pm 8.5 6.8 8.4 99 0.0 NE 7 9 4 5 1021.6 1021.7 0.0
26/10:30pm 7.8 6.1 7.7 99 0.0 NE 6 6 3 3 1021.5 - 0.0
26/10:00pm 7.9 6.6 7.8 99 0.0 NE 4 4 2 2 1021.3 1021.4 0.0
26/09:30pm 7.8 6.9 7.7 99 0.0 NE 2 4 1 2 1021.3 - 0.0
26/09:00pm 8.0 7.5 7.9 99 0.0 CALM 0 2 0 1 1021.2 1021.3 0.0
26/08:30pm 7.7 6.7 7.3 97 0.2 NE 2 7 1 4 1021.0 - 0.0
26/08:00pm 7.9 6.9 7.3 96 0.3 NE 2 4 1 2 1020.7 1020.8 0.0
26/07:30pm 9.1 7.6 8.6 97 0.2 NE 6 6 3 3 1020.5 - 0.0
26/07:00pm 8.1 6.4 7.7 97 0.2 NE 6 7 3 4 1020.6 1020.7 0.0

Other Formats:

Comma delimited format used in spreadsheet applications
http://www.bom.gov.au/fwo/IDT60801/IDT60801.94951.axf

JavaScript Object Notation format (JSON) in row-major order
http://www.bom.gov.au/fwo/IDT60801/IDT60801.94951.json